createdAt,value
2023-01-17T00:02:26.989Z,7.22
2023-01-17T00:07:47.833Z,7.88
2023-01-17T00:12:55.383Z,6.15
2023-01-17T00:17:57.576Z,6.20
2023-01-17T00:23:17.750Z,6.00
2023-01-17T00:28:19.967Z,6.40
2023-01-17T00:33:22.863Z,5.65
2023-01-17T00:38:26.984Z,5.55
2023-01-17T00:43:48.920Z,5.28
2023-01-17T00:49:09.791Z,4.88
2023-01-17T00:54:30.691Z,5.13
2023-01-17T00:59:51.316Z,4.45
2023-01-17T01:05:11.180Z,5.30
2023-01-17T01:10:31.510Z,4.85
2023-01-17T01:15:51.631Z,5.80
2023-01-17T01:21:12.461Z,5.25
2023-01-17T01:26:32.293Z,5.15
2023-01-17T01:31:52.315Z,5.40
2023-01-17T01:36:54.016Z,5.47
2023-01-17T01:41:55.728Z,5.20
2023-01-17T01:46:57.454Z,5.35
2023-01-17T01:52:03.399Z,5.53
2023-01-17T01:57:09.571Z,5.38
2023-01-17T02:02:11.305Z,5.60
2023-01-17T02:07:22.100Z,4.80
2023-01-17T02:12:24.913Z,5.70
2023-01-17T02:18:01.791Z,5.55
2023-01-17T02:23:25.280Z,8.00
2023-01-17T02:28:51.052Z,7.38
2023-01-17T02:34:20.733Z,7.13
2023-01-17T02:39:28.431Z,6.75
2023-01-17T02:44:30.183Z,7.55
2023-01-17T02:49:32.550Z,6.60
2023-01-17T02:54:52.417Z,7.45
2023-01-17T03:00:20.690Z,5.72
2023-01-17T03:05:25.820Z,6.82
2023-01-17T03:10:28.993Z,5.95
2023-01-17T03:15:31.019Z,6.93
2023-01-17T03:20:32.679Z,5.65
2023-01-17T03:25:34.572Z,5.10
2023-01-17T03:30:36.255Z,6.38
2023-01-17T03:35:37.995Z,6.60
2023-01-17T03:40:39.705Z,6.45
2023-01-17T03:45:41.398Z,6.32
2023-01-17T03:50:43.151Z,6.15
2023-01-17T03:55:47.784Z,5.43
2023-01-17T04:00:49.489Z,6.72
2023-01-17T04:05:51.260Z,6.28
2023-01-17T04:10:53.007Z,6.10
2023-01-17T04:15:54.793Z,6.25
2023-01-17T04:20:56.423Z,6.05
2023-01-17T04:25:58.148Z,5.60
2023-01-17T04:31:00.892Z,5.20
2023-01-17T04:36:02.606Z,5.10
2023-01-17T04:41:04.418Z,5.20
2023-01-17T04:46:10.163Z,5.60
2023-01-17T04:51:12.137Z,4.70
2023-01-17T04:56:13.942Z,4.85
2023-01-17T05:01:15.718Z,4.68
2023-01-17T05:06:17.437Z,5.50
2023-01-17T05:11:19.131Z,5.60
2023-01-17T05:16:20.826Z,5.25
2023-01-17T05:21:22.734Z,6.03
2023-01-17T05:26:24.653Z,5.60
2023-01-17T05:31:26.330Z,5.43
2023-01-17T05:36:28.048Z,4.72
2023-01-17T05:41:29.693Z,4.30
2023-01-17T05:46:31.406Z,5.10
2023-01-17T05:51:33.257Z,5.20
2023-01-17T05:56:34.979Z,5.32
2023-01-17T06:01:36.687Z,5.40
2023-01-17T06:06:38.369Z,6.50
2023-01-17T06:11:40.084Z,6.88
2023-01-17T06:16:41.905Z,8.98
2023-01-17T06:21:43.564Z,9.15
2023-01-17T06:26:45.312Z,9.10
2023-01-17T06:31:47.019Z,9.68
2023-01-17T06:36:49.384Z,8.68
2023-01-17T06:41:51.142Z,7.85
2023-01-17T06:46:53.878Z,9.50
2023-01-17T06:51:55.562Z,8.38
2023-01-17T06:56:57.269Z,7.47
2023-01-17T07:01:58.994Z,8.70
2023-01-17T07:07:01.475Z,8.00
2023-01-17T07:12:03.740Z,6.97
2023-01-17T07:17:06.049Z,7.20
2023-01-17T07:22:10.274Z,7.13
2023-01-17T07:27:11.897Z,7.95
2023-01-17T07:32:13.565Z,6.47
2023-01-17T07:37:15.570Z,8.30
2023-01-17T07:42:17.414Z,8.63
2023-01-17T07:47:20.054Z,8.35
2023-01-17T07:52:21.780Z,8.75
2023-01-17T07:57:23.823Z,8.07
2023-01-17T08:02:25.495Z,8.88
2023-01-17T08:07:27.300Z,8.00
2023-01-17T08:12:29.649Z,10.73
2023-01-17T08:17:31.394Z,10.20
2023-01-17T08:22:33.161Z,11.63
2023-01-17T08:27:36.257Z,7.40
2023-01-17T08:32:41.928Z,6.55
2023-01-17T08:37:46.003Z,7.53
2023-01-17T08:43:17.843Z,7.50
2023-01-17T08:48:20.037Z,6.97
2023-01-17T08:53:23.296Z,7.07
2023-01-17T08:58:24.987Z,7.38
2023-01-17T09:03:26.738Z,7.30
2023-01-17T09:08:28.453Z,7.95
2023-01-17T09:13:30.203Z,7.35
2023-01-17T09:18:33.350Z,6.97
2023-01-17T09:23:35.159Z,6.80
2023-01-17T09:28:41.205Z,7.32
2023-01-17T09:33:43.156Z,7.30
2023-01-17T09:38:45.294Z,7.43
2023-01-17T09:43:52.452Z,7.25
2023-01-17T09:49:10.040Z,7.47
2023-01-17T09:54:22.886Z,6.75
2023-01-17T09:59:35.350Z,7.30
2023-01-17T10:05:04.927Z,7.15
2023-01-17T10:10:24.757Z,7.60
2023-01-17T10:15:41.452Z,7.00
2023-01-17T10:21:12.424Z,8.20
2023-01-17T10:26:27.372Z,7.45
2023-01-17T10:31:36.228Z,7.80
2023-01-17T10:36:45.477Z,7.85
2023-01-17T10:41:55.491Z,8.68
2023-01-17T10:47:01.416Z,8.77
2023-01-17T10:52:45.303Z,8.17
2023-01-17T10:57:48.885Z,7.82
2023-01-17T11:02:51.728Z,8.32
2023-01-17T11:08:05.036Z,8.93
2023-01-17T11:13:27.687Z,8.27
2023-01-17T11:18:32.197Z,8.50
2023-01-17T11:23:34.404Z,8.10
2023-01-17T11:28:41.077Z,7.68
2023-01-17T11:39:04.994Z,8.57
2023-01-17T11:44:31.541Z,11.18
2023-01-17T11:49:33.581Z,11.60
2023-01-17T11:54:40.509Z,11.43
2023-01-17T11:59:46.033Z,10.45
2023-01-17T12:05:05.025Z,7.95
2023-01-17T12:10:36.943Z,9.55
2023-01-17T12:15:52.116Z,9.23
2023-01-17T12:21:17.738Z,5.90
2023-01-17T12:26:42.859Z,6.03
2023-01-17T12:32:22.060Z,6.30
2023-01-17T12:37:37.247Z,5.50
2023-01-17T12:42:44.736Z,4.68
2023-01-17T12:47:54.519Z,5.63
2023-01-17T12:53:02.035Z,5.68
2023-01-17T12:58:07.373Z,6.78
2023-01-17T13:03:33.374Z,6.60
2023-01-17T13:08:46.610Z,5.95
2023-01-17T13:13:51.473Z,6.43
2023-01-17T13:18:53.871Z,6.13
2023-01-17T13:24:06.032Z,6.82
2023-01-17T13:29:16.798Z,5.88
2023-01-17T13:35:09.158Z,5.85
2023-01-17T13:40:22.661Z,5.85
2023-01-17T13:45:29.607Z,5.85
2023-01-17T13:50:37.129Z,6.90
2023-01-17T13:55:46.866Z,6.35
2023-01-17T14:00:50.609Z,6.82
2023-01-17T14:05:57.142Z,7.20
2023-01-17T14:11:09.838Z,6.18
2023-01-17T14:16:29.689Z,7.00
2023-01-17T14:21:32.458Z,7.10
2023-01-17T14:26:55.521Z,6.90
2023-01-17T14:32:02.677Z,6.80
2023-01-17T14:37:13.514Z,6.75
2023-01-17T14:42:18.869Z,7.07
2023-01-17T14:47:22.492Z,6.53
2023-01-17T14:52:24.307Z,6.47
2023-01-17T14:57:29.454Z,6.80
2023-01-17T15:02:32.104Z,7.00
2023-01-17T15:07:33.976Z,5.60
2023-01-17T15:12:36.961Z,6.28
2023-01-17T15:17:38.709Z,5.75
2023-01-17T15:22:40.428Z,6.18
2023-01-17T15:27:42.257Z,6.90
2023-01-17T15:32:47.931Z,6.10
2023-01-17T15:37:54.752Z,5.88
2023-01-17T15:42:59.477Z,5.15
2023-01-17T15:48:29.145Z,5.53
2023-01-17T15:53:34.250Z,5.70
2023-01-17T15:58:35.990Z,5.88
2023-01-17T16:03:37.664Z,6.03
2023-01-17T16:08:40.160Z,5.55
2023-01-17T16:13:43.473Z,5.03
2023-01-17T16:18:47.342Z,5.88
2023-01-17T16:23:49.978Z,5.65
2023-01-17T16:28:52.018Z,5.70
2023-01-17T16:33:53.817Z,4.85
2023-01-17T16:38:55.636Z,5.38
2023-01-17T16:44:00.255Z,5.10
2023-01-17T16:49:01.984Z,4.65
2023-01-17T16:54:03.810Z,5.18
2023-01-17T16:59:05.685Z,5.03
2023-01-17T17:04:07.431Z,5.20
2023-01-17T17:09:09.253Z,5.10
2023-01-17T17:14:11.001Z,6.22
2023-01-17T17:19:12.842Z,6.90
2023-01-17T17:24:15.895Z,7.95
2023-01-17T17:29:17.767Z,7.22
2023-01-17T17:34:19.680Z,7.10
2023-01-17T17:39:21.440Z,6.53
2023-01-17T17:44:23.151Z,6.50
2023-01-17T17:49:25.902Z,5.65
2023-01-17T17:54:28.071Z,6.72
2023-01-17T17:59:30.082Z,7.10
2023-01-17T18:04:32.270Z,6.03
2023-01-17T18:09:34.403Z,5.13
2023-01-17T18:14:36.378Z,5.18
2023-01-17T18:19:39.076Z,5.50
2023-01-17T18:24:42.114Z,4.90
2023-01-17T18:29:44.460Z,5.10
2023-01-17T18:34:47.447Z,4.55
2023-01-17T18:39:50.932Z,4.63
2023-01-17T18:44:54.452Z,4.43
2023-01-17T18:49:56.947Z,4.22
2023-01-17T18:54:59.680Z,4.20
2023-01-17T19:00:05.397Z,4.63
2023-01-17T19:05:12.250Z,4.47
2023-01-17T19:10:14.794Z,4.70
2023-01-17T19:15:17.096Z,4.40
2023-01-17T19:20:19.499Z,4.53
2023-01-17T19:25:24.477Z,4.63
2023-01-17T19:30:27.063Z,3.95
2023-01-17T19:35:30.341Z,4.13
2023-01-17T19:40:34.032Z,3.58
2023-01-17T19:45:37.926Z,3.45
2023-01-17T19:50:40.528Z,3.80
2023-01-17T19:55:42.324Z,3.80
2023-01-17T20:00:46.697Z,3.85
2023-01-17T20:05:57.127Z,4.10
2023-01-17T20:11:07.704Z,4.57
2023-01-17T20:16:12.235Z,3.88
2023-01-17T20:21:22.253Z,3.97
2023-01-17T20:26:35.216Z,4.15
2023-01-17T20:31:39.229Z,4.13
2023-01-17T20:36:42.340Z,5.25
2023-01-17T20:41:49.140Z,3.85
2023-01-17T20:46:51.044Z,4.40
2023-01-17T20:51:54.003Z,4.45
2023-01-17T20:56:56.049Z,4.35
2023-01-17T21:01:58.045Z,4.65
2023-01-17T21:06:59.946Z,4.40
2023-01-17T21:12:02.097Z,5.18
2023-01-17T21:17:03.840Z,5.18
2023-01-17T21:22:05.583Z,4.93
2023-01-17T21:27:07.391Z,5.60
2023-01-17T21:32:09.053Z,5.80
2023-01-17T21:37:10.660Z,5.57
2023-01-17T21:42:12.293Z,5.85
2023-01-17T21:47:13.933Z,5.40
2023-01-17T21:52:18.365Z,5.05
2023-01-17T21:57:40.355Z,5.88
2023-01-17T22:02:43.474Z,5.82
2023-01-17T22:08:05.728Z,6.18
2023-01-17T22:13:07.395Z,6.13
2023-01-17T22:18:09.822Z,5.55
2023-01-17T22:23:11.929Z,5.55
2023-01-17T22:28:13.646Z,5.40
2023-01-17T22:33:15.300Z,6.65
2023-01-17T22:38:16.941Z,6.68
2023-01-17T22:43:18.841Z,6.40
2023-01-17T22:48:20.568Z,6.00
2023-01-17T22:53:22.278Z,6.45
2023-01-17T22:58:24.025Z,5.75
2023-01-17T23:03:25.738Z,5.43
2023-01-17T23:08:27.360Z,5.70
2023-01-17T23:13:28.980Z,6.38
2023-01-17T23:18:49.488Z,5.25
2023-01-17T23:23:51.132Z,5.32
2023-01-17T23:28:52.822Z,5.57
2023-01-17T23:33:54.435Z,5.93
2023-01-17T23:38:56.016Z,5.85
2023-01-17T23:43:59.127Z,5.95
2023-01-17T23:49:00.913Z,5.38
2023-01-17T23:54:05.556Z,5.60
2023-01-17T23:59:07.244Z,5.90
